createdAt,value
2023-03-02T00:01:48.847Z,28.40
2023-03-02T00:04:27.837Z,31.10
2023-03-02T00:06:58.536Z,32.60
2023-03-02T00:09:26.329Z,34.10
2023-03-02T00:11:54.335Z,35.50
2023-03-02T00:14:22.222Z,33.60
2023-03-02T00:16:50.098Z,32.20
2023-03-02T00:19:18.184Z,35.00
2023-03-02T00:21:46.025Z,37.90
2023-03-02T00:24:15.748Z,37.00
2023-03-02T00:26:43.548Z,35.60
2023-03-02T00:29:12.370Z,34.20
2023-03-02T00:31:40.450Z,32.30
2023-03-02T00:34:08.369Z,31.40
2023-03-02T00:36:36.452Z,32.40
2023-03-02T00:39:07.335Z,31.40
2023-03-02T00:41:35.180Z,29.10
2023-03-02T00:44:03.350Z,31.20
2023-03-02T00:46:31.666Z,29.30
2023-03-02T00:49:00.383Z,29.30
2023-03-02T00:51:28.363Z,30.20
2023-03-02T00:53:56.258Z,28.20
2023-03-02T00:56:24.130Z,30.60
2023-03-02T00:58:52.682Z,29.30
2023-03-02T01:01:20.428Z,30.60
2023-03-02T01:03:50.573Z,30.90
2023-03-02T01:06:20.217Z,30.90
2023-03-02T01:08:48.164Z,30.00
2023-03-02T01:11:18.004Z,29.90
2023-03-02T01:13:46.215Z,30.00
2023-03-02T01:16:14.485Z,32.00
2023-03-02T01:18:42.461Z,31.80
2023-03-02T01:21:15.302Z,31.50
2023-03-02T01:23:43.357Z,30.40
2023-03-02T01:26:11.193Z,28.40
2023-03-02T01:28:39.286Z,28.20
2023-03-02T01:31:07.278Z,28.70
2023-03-02T01:33:35.361Z,31.30
2023-03-02T01:36:03.458Z,31.20
2023-03-02T01:38:31.448Z,32.10
2023-03-02T01:40:59.191Z,29.60
2023-03-02T01:43:29.320Z,26.80
2023-03-02T01:46:03.102Z,27.60
2023-03-02T01:48:49.322Z,27.40
2023-03-02T01:51:24.720Z,26.50
2023-03-02T01:53:59.083Z,25.10
2023-03-02T01:56:40.176Z,27.30
2023-03-02T01:59:14.680Z,27.80
2023-03-02T02:01:45.148Z,27.00
2023-03-02T02:04:14.228Z,27.80
2023-03-02T02:07:03.530Z,26.10
2023-03-02T02:09:34.790Z,26.50
2023-03-02T02:12:03.068Z,26.30
2023-03-02T02:14:31.138Z,26.60
2023-03-02T02:16:59.166Z,26.80
2023-03-02T02:19:50.712Z,26.70
2023-03-02T02:22:29.576Z,26.20
2023-03-02T02:24:59.266Z,27.40
2023-03-02T02:27:29.985Z,26.10
2023-03-02T02:29:58.460Z,25.80
2023-03-02T02:32:30.759Z,26.20
2023-03-02T02:35:06.217Z,26.20
2023-03-02T02:37:39.916Z,27.50
2023-03-02T02:40:15.572Z,26.30
2023-03-02T02:42:46.256Z,26.90
2023-03-02T02:45:24.605Z,27.50
2023-03-02T02:47:53.875Z,28.10
2023-03-02T02:50:35.126Z,24.10
2023-03-02T02:53:19.576Z,25.90
2023-03-02T02:55:48.885Z,24.20
2023-03-02T02:58:39.013Z,22.70
2023-03-02T03:01:07.266Z,25.70
2023-03-02T03:03:38.298Z,25.90
2023-03-02T03:06:14.532Z,26.40
2023-03-02T03:08:45.727Z,28.70
2023-03-02T03:11:24.085Z,29.00
2023-03-02T03:14:00.963Z,33.60
2023-03-02T03:16:30.475Z,30.60
2023-03-02T03:19:05.561Z,29.10
2023-03-02T03:21:33.747Z,29.10
2023-03-02T03:24:02.410Z,26.70
2023-03-02T03:26:31.573Z,27.10
2023-03-02T03:29:00.074Z,28.50
2023-03-02T03:31:28.612Z,28.00
2023-03-02T03:34:00.602Z,28.80
2023-03-02T03:36:31.058Z,25.60
2023-03-02T03:39:00.301Z,29.10
2023-03-02T03:41:28.600Z,28.60
2023-03-02T03:43:56.575Z,30.20
2023-03-02T03:46:25.555Z,31.70
2023-03-02T03:48:53.561Z,32.80
2023-03-02T03:51:21.814Z,33.10
2023-03-02T03:54:00.059Z,31.70
2023-03-02T03:56:35.270Z,29.30
2023-03-02T03:59:08.085Z,30.90
2023-03-02T04:01:49.493Z,32.70
2023-03-02T04:04:27.927Z,32.20
2023-03-02T04:06:56.643Z,32.70
2023-03-02T04:09:24.934Z,34.40
2023-03-02T04:11:55.548Z,34.50
2023-03-02T04:14:24.171Z,34.20
2023-03-02T04:16:53.135Z,34.10
2023-03-02T04:19:22.615Z,33.70
2023-03-02T04:21:54.251Z,33.40
2023-03-02T04:24:23.397Z,34.50
2023-03-02T04:26:53.243Z,32.70
2023-03-02T04:29:21.882Z,36.10
2023-03-02T04:31:51.570Z,38.30
2023-03-02T04:34:20.774Z,37.10
2023-03-02T04:36:49.022Z,39.80
2023-03-02T04:39:18.146Z,36.90
2023-03-02T04:41:49.923Z,38.30
2023-03-02T04:44:18.281Z,36.70
2023-03-02T04:46:46.869Z,36.90
2023-03-02T04:49:17.125Z,37.70
2023-03-02T04:51:46.395Z,35.90
2023-03-02T04:54:27.402Z,35.90
2023-03-02T04:56:55.585Z,35.30
2023-03-02T04:59:28.118Z,37.50
2023-03-02T05:01:58.755Z,36.60
2023-03-02T05:04:27.550Z,37.40
2023-03-02T05:06:55.652Z,34.60
2023-03-02T05:09:27.547Z,33.40
2023-03-02T05:11:56.035Z,37.60
2023-03-02T05:14:24.203Z,37.20
2023-03-02T05:16:52.369Z,40.20
2023-03-02T05:19:20.297Z,40.10
2023-03-02T05:21:48.265Z,38.80
2023-03-02T05:24:16.233Z,42.10
2023-03-02T05:26:44.057Z,39.70
2023-03-02T05:29:11.915Z,41.10
2023-03-02T05:31:42.380Z,37.50
2023-03-02T05:34:12.729Z,40.20
2023-03-02T05:36:40.874Z,37.60
2023-03-02T05:39:09.361Z,38.80
2023-03-02T05:41:37.491Z,38.70
2023-03-02T05:44:09.343Z,39.20
2023-03-02T05:46:37.322Z,40.30
2023-03-02T05:49:05.355Z,42.40
2023-03-02T05:51:33.259Z,41.70
2023-03-02T05:54:01.244Z,38.70
2023-03-02T05:56:29.178Z,37.10
2023-03-02T05:58:56.958Z,39.60
2023-03-02T06:01:24.758Z,41.80
2023-03-02T06:03:52.511Z,41.90
2023-03-02T06:06:20.433Z,44.70
2023-03-02T06:08:48.354Z,42.90
2023-03-02T06:11:16.408Z,43.40
2023-03-02T06:13:44.184Z,42.80
2023-03-02T06:16:12.031Z,47.20
2023-03-02T06:18:41.562Z,44.50
2023-03-02T06:21:10.080Z,47.10
2023-03-02T06:23:37.957Z,47.80
2023-03-02T06:26:12.026Z,48.40
2023-03-02T06:28:51.957Z,43.30
2023-03-02T06:31:22.028Z,46.60
2023-03-02T06:33:50.011Z,44.40
2023-03-02T06:36:18.326Z,41.00
2023-03-02T06:38:46.318Z,36.30
2023-03-02T06:41:14.182Z,38.00
2023-03-02T06:43:42.325Z,39.00
2023-03-02T06:46:10.336Z,35.90
2023-03-02T06:48:38.507Z,36.60
2023-03-02T06:51:08.088Z,39.80
2023-03-02T06:53:36.053Z,42.70
2023-03-02T06:56:04.479Z,40.70
2023-03-02T06:58:32.677Z,40.50
2023-03-02T07:01:00.926Z,41.30
2023-03-02T07:03:28.962Z,41.10
2023-03-02T07:05:57.017Z,38.90
2023-03-02T07:08:24.887Z,39.50
2023-03-02T07:10:53.002Z,37.90
2023-03-02T07:13:20.973Z,39.60
2023-03-02T07:15:49.086Z,36.40
2023-03-02T07:18:17.001Z,36.80
2023-03-02T07:20:44.865Z,37.00
2023-03-02T07:23:12.881Z,33.50
2023-03-02T07:25:41.178Z,36.90
2023-03-02T07:28:09.658Z,37.00
2023-03-02T07:30:37.487Z,38.70
2023-03-02T07:33:05.382Z,38.90
2023-03-02T07:35:33.252Z,36.90
2023-03-02T07:38:01.336Z,33.10
2023-03-02T07:40:29.344Z,36.70
2023-03-02T07:42:57.368Z,34.40
2023-03-02T07:45:25.754Z,38.40
2023-03-02T07:47:53.659Z,41.40
2023-03-02T07:50:21.626Z,37.70
2023-03-02T07:52:49.685Z,42.30
2023-03-02T07:55:17.741Z,38.10
2023-03-02T07:57:45.775Z,38.70
2023-03-02T08:00:15.000Z,41.70
2023-03-02T08:02:42.888Z,42.20
2023-03-02T08:05:11.600Z,39.80
2023-03-02T08:07:40.898Z,38.90
2023-03-02T08:10:10.698Z,45.40
2023-03-02T08:12:38.705Z,42.50
2023-03-02T08:15:07.381Z,38.50
2023-03-02T08:17:35.217Z,41.10
2023-03-02T08:20:04.411Z,33.30
2023-03-02T08:22:32.214Z,36.90
2023-03-02T08:25:00.017Z,37.00
2023-03-02T08:27:27.820Z,37.10
2023-03-02T08:29:56.899Z,34.40
2023-03-02T08:32:24.995Z,39.00
2023-03-02T08:34:53.263Z,41.50
2023-03-02T08:37:21.218Z,37.50
2023-03-02T08:39:49.107Z,111.60
2023-03-02T08:42:17.837Z,48.60
2023-03-02T08:44:45.714Z,42.30
2023-03-02T08:47:13.850Z,43.90
2023-03-02T08:49:41.715Z,45.30
2023-03-02T08:52:09.616Z,40.80
2023-03-02T08:54:40.733Z,43.30
2023-03-02T08:57:11.636Z,40.20
2023-03-02T08:59:39.697Z,42.40
2023-03-02T09:02:07.486Z,40.70
2023-03-02T09:04:35.611Z,44.50
2023-03-02T09:07:03.586Z,45.20
2023-03-02T09:09:31.577Z,45.00
2023-03-02T09:11:59.495Z,39.90
2023-03-02T09:14:27.574Z,45.90
2023-03-02T09:16:55.779Z,43.80
2023-03-02T09:19:24.037Z,49.40
2023-03-02T09:21:52.024Z,48.90
2023-03-02T09:24:19.826Z,49.30
2023-03-02T09:26:47.754Z,49.90
2023-03-02T09:29:15.720Z,48.40
2023-03-02T09:31:43.688Z,52.00
2023-03-02T09:34:11.512Z,50.90
2023-03-02T09:36:39.475Z,46.80
2023-03-02T09:39:12.310Z,53.00
2023-03-02T09:42:18.219Z,57.60
2023-03-02T09:45:00.667Z,56.50
2023-03-02T09:47:46.813Z,57.80
2023-03-02T09:50:35.161Z,66.10
2023-03-02T09:53:22.078Z,57.20
2023-03-02T09:56:02.503Z,57.40
2023-03-02T09:58:36.048Z,52.00
2023-03-02T10:01:10.473Z,48.50
2023-03-02T10:03:45.717Z,47.40
2023-03-02T10:06:13.647Z,47.90
2023-03-02T10:08:43.574Z,48.80
2023-03-02T10:11:59.212Z,46.90
2023-03-02T10:14:42.314Z,39.00
2023-03-02T10:17:23.485Z,47.00
2023-03-02T10:20:00.521Z,47.60
2023-03-02T10:22:50.883Z,47.00
2023-03-02T10:25:48.594Z,43.30
2023-03-02T10:28:20.796Z,43.60
2023-03-02T10:30:54.907Z,47.70
2023-03-02T10:33:22.834Z,47.80
2023-03-02T10:35:53.950Z,49.60
2023-03-02T10:38:24.153Z,45.60
2023-03-02T10:40:59.897Z,43.70
2023-03-02T10:43:31.873Z,47.20
2023-03-02T10:46:05.117Z,44.10
2023-03-02T10:48:33.374Z,45.40
2023-03-02T10:51:01.391Z,46.70
2023-03-02T10:53:29.537Z,44.30
2023-03-02T10:55:57.537Z,42.90
2023-03-02T10:58:33.255Z,44.60
2023-03-02T11:01:04.287Z,44.20
2023-03-02T11:03:32.455Z,45.20
2023-03-02T11:06:18.003Z,46.50
2023-03-02T11:08:45.974Z,47.10
2023-03-02T11:11:24.787Z,45.30
2023-03-02T11:13:52.838Z,46.20
2023-03-02T11:16:28.857Z,45.80
2023-03-02T11:19:14.813Z,45.10
2023-03-02T11:22:11.661Z,44.80
2023-03-02T11:24:43.229Z,45.90
2023-03-02T11:27:22.719Z,44.00
2023-03-02T11:30:03.218Z,42.50
2023-03-02T11:32:34.899Z,44.20
2023-03-02T11:35:06.903Z,44.90
2023-03-02T11:37:51.306Z,43.10
2023-03-02T11:40:30.457Z,43.10
2023-03-02T11:42:59.894Z,44.30
2023-03-02T11:45:47.816Z,42.30
2023-03-02T11:48:24.448Z,41.90
2023-03-02T11:51:05.770Z,39.20
2023-03-02T11:53:42.265Z,40.80
2023-03-02T11:56:10.339Z,47.90
2023-03-02T11:58:38.318Z,41.70
2023-03-02T12:01:07.698Z,46.50
2023-03-02T12:03:38.502Z,52.80
2023-03-02T12:06:25.244Z,47.10
2023-03-02T12:09:06.637Z,48.70
2023-03-02T12:11:39.115Z,51.40
2023-03-02T12:14:37.207Z,52.00
2023-03-02T12:17:27.092Z,44.20
2023-03-02T12:20:18.741Z,41.90
2023-03-02T12:22:46.702Z,40.20
2023-03-02T12:25:20.675Z,43.30
2023-03-02T12:27:51.403Z,40.50
2023-03-02T12:30:23.794Z,41.20
2023-03-02T12:33:10.194Z,42.80
2023-03-02T12:35:38.559Z,45.20
2023-03-02T12:38:28.152Z,39.10
2023-03-02T12:44:44.161Z,37.20
2023-03-02T12:47:21.967Z,39.50
2023-03-02T12:50:22.289Z,42.70
2023-03-02T12:52:59.453Z,33.70
2023-03-02T12:55:27.784Z,38.50
2023-03-02T12:57:59.979Z,41.70
2023-03-02T13:00:34.478Z,39.70
2023-03-02T13:03:03.156Z,36.00
2023-03-02T13:05:33.984Z,38.70
2023-03-02T13:08:17.772Z,39.50
2023-03-02T13:10:53.869Z,37.10
2023-03-02T13:13:33.104Z,37.70
2023-03-02T13:16:06.614Z,35.60
2023-03-02T13:18:37.223Z,34.90
2023-03-02T13:21:05.172Z,31.20
2023-03-02T13:23:34.040Z,34.00
2023-03-02T13:26:04.766Z,33.10
2023-03-02T13:28:37.298Z,34.40
2023-03-02T13:31:16.755Z,31.20
2023-03-02T13:33:45.707Z,33.70
2023-03-02T13:36:21.657Z,36.50
2023-03-02T13:38:52.893Z,34.80
2023-03-02T13:41:35.369Z,35.00
2023-03-02T13:44:21.489Z,32.30
2023-03-02T13:46:49.369Z,34.00
2023-03-02T13:49:32.580Z,34.80
2023-03-02T13:52:18.186Z,31.70
2023-03-02T13:54:45.939Z,27.20
2023-03-02T13:57:17.424Z,25.90
2023-03-02T13:59:45.347Z,27.20
2023-03-02T14:02:25.645Z,22.80
2023-03-02T14:04:53.942Z,23.30
2023-03-02T14:07:21.899Z,22.90
2023-03-02T14:09:49.783Z,22.20
2023-03-02T14:12:27.102Z,21.40
2023-03-02T14:14:57.066Z,28.00
2023-03-02T14:17:25.478Z,25.60
2023-03-02T14:19:53.605Z,28.00
2023-03-02T14:22:26.887Z,26.50
2023-03-02T14:24:54.845Z,29.40
2023-03-02T14:27:22.965Z,33.40
2023-03-02T14:29:50.838Z,42.70
2023-03-02T14:32:18.768Z,55.30
2023-03-02T14:34:46.772Z,50.30
2023-03-02T14:37:18.135Z,50.30
2023-03-02T14:39:55.585Z,45.40
2023-03-02T14:42:23.814Z,43.10
2023-03-02T14:44:51.987Z,38.50
2023-03-02T14:47:21.794Z,43.20
2023-03-02T14:49:49.893Z,45.80
2023-03-02T14:52:30.304Z,45.20
2023-03-02T14:55:02.080Z,43.90
2023-03-02T14:57:36.460Z,43.80
2023-03-02T15:00:06.142Z,46.10
2023-03-02T15:02:34.220Z,48.60
2023-03-02T15:05:02.264Z,41.50
2023-03-02T15:07:30.178Z,43.50
2023-03-02T15:09:58.272Z,47.50
2023-03-02T15:12:26.200Z,40.60
2023-03-02T15:14:54.167Z,44.80
2023-03-02T15:17:22.080Z,39.60
2023-03-02T15:19:50.046Z,40.20
2023-03-02T15:22:17.909Z,39.90
2023-03-02T15:24:45.811Z,44.40
2023-03-02T15:27:13.719Z,36.00
2023-03-02T15:29:48.168Z,37.80
2023-03-02T15:32:16.319Z,35.80
2023-03-02T15:34:44.362Z,34.90
2023-03-02T15:37:12.898Z,37.90
2023-03-02T15:39:41.141Z,38.80
2023-03-02T15:42:09.408Z,38.60
2023-03-02T15:44:37.810Z,40.70
2023-03-02T15:47:05.662Z,38.70
2023-03-02T15:49:33.588Z,35.30
2023-03-02T15:52:01.569Z,39.80
2023-03-02T15:54:29.545Z,41.30
2023-03-02T15:56:57.462Z,41.80
2023-03-02T15:59:28.075Z,39.20
2023-03-02T16:02:02.476Z,40.40
2023-03-02T16:04:32.227Z,42.50
2023-03-02T16:07:00.646Z,43.30
2023-03-02T16:09:31.465Z,42.90
2023-03-02T16:12:01.143Z,37.80
2023-03-02T16:14:29.010Z,35.60
2023-03-02T16:16:57.618Z,25.10
2023-03-02T16:19:26.427Z,24.90
2023-03-02T16:21:54.694Z,24.00
2023-03-02T16:24:23.116Z,19.70
2023-03-02T16:26:52.933Z,20.00
2023-03-02T16:29:21.153Z,20.00
2023-03-02T16:31:51.060Z,19.10
2023-03-02T16:34:20.410Z,19.50
2023-03-02T16:36:48.933Z,17.00
2023-03-02T16:39:16.918Z,17.30
2023-03-02T16:41:46.385Z,16.70
2023-03-02T16:44:15.040Z,16.90
2023-03-02T16:46:43.857Z,19.80
2023-03-02T16:49:13.626Z,21.50
2023-03-02T16:51:42.767Z,19.40
2023-03-02T16:54:11.827Z,19.50
2023-03-02T16:56:45.996Z,20.20
2023-03-02T16:59:14.362Z,18.40
2023-03-02T17:01:42.387Z,20.30
2023-03-02T17:04:10.456Z,23.10
2023-03-02T17:06:40.106Z,27.40
2023-03-02T17:09:09.997Z,27.40
2023-03-02T17:11:38.769Z,29.70
2023-03-02T17:14:06.565Z,33.50
2023-03-02T17:16:34.526Z,30.00
2023-03-02T17:19:02.706Z,37.80
2023-03-02T17:21:30.781Z,38.90
2023-03-02T17:23:58.747Z,43.90
2023-03-02T17:26:26.702Z,40.40
2023-03-02T17:28:54.699Z,39.20
2023-03-02T17:31:22.751Z,39.50
2023-03-02T17:33:50.580Z,42.80
2023-03-02T17:36:18.506Z,43.50
2023-03-02T17:38:46.416Z,44.30
2023-03-02T17:41:14.943Z,42.30
2023-03-02T17:43:43.004Z,39.30
2023-03-02T17:46:23.355Z,34.00
2023-03-02T17:48:54.835Z,33.30
2023-03-02T17:51:23.986Z,31.70
2023-03-02T17:53:52.535Z,27.20
2023-03-02T17:56:23.560Z,28.50
2023-03-02T17:59:02.528Z,28.10
2023-03-02T18:01:30.807Z,29.90
2023-03-02T18:03:59.006Z,25.90
2023-03-02T18:06:27.848Z,24.20
2023-03-02T18:08:56.106Z,24.00
2023-03-02T18:11:25.690Z,24.00
2023-03-02T18:13:58.592Z,22.80
2023-03-02T18:16:28.622Z,21.30
2023-03-02T18:18:58.417Z,20.50
2023-03-02T18:21:26.185Z,21.50
2023-03-02T18:23:54.487Z,20.50
2023-03-02T18:26:22.463Z,21.20
2023-03-02T18:28:50.669Z,21.00
2023-03-02T18:31:19.105Z,22.10
2023-03-02T18:33:47.327Z,19.40
2023-03-02T18:36:15.476Z,23.70
2023-03-02T18:38:43.569Z,22.20
2023-03-02T18:41:13.733Z,22.50
2023-03-02T18:43:42.412Z,22.60
2023-03-02T18:46:25.602Z,26.30
2023-03-02T18:48:54.154Z,25.60
2023-03-02T18:51:22.838Z,21.00
2023-03-02T18:53:51.222Z,23.10
2023-03-02T18:56:19.492Z,23.50
2023-03-02T18:58:48.629Z,23.00
2023-03-02T19:01:16.902Z,24.00
2023-03-02T19:03:49.105Z,26.00
2023-03-02T19:06:17.034Z,26.90
2023-03-02T19:08:44.921Z,26.60
2023-03-02T19:11:13.969Z,26.40
2023-03-02T19:13:42.155Z,24.40
2023-03-02T19:16:09.981Z,29.60
2023-03-02T19:18:38.190Z,23.80
2023-03-02T19:21:06.519Z,26.60
2023-03-02T19:23:34.517Z,29.30
2023-03-02T19:26:04.961Z,29.30
2023-03-02T19:28:35.105Z,30.10
2023-03-02T19:31:09.415Z,29.50
2023-03-02T19:33:41.014Z,28.10
2023-03-02T19:36:09.633Z,26.70
2023-03-02T19:38:41.610Z,27.70
2023-03-02T19:41:11.973Z,29.50
2023-03-02T19:43:41.881Z,29.70
2023-03-02T19:46:10.848Z,29.80
2023-03-02T19:48:39.086Z,34.70
2023-03-02T19:51:09.098Z,31.90
2023-03-02T19:53:37.980Z,32.90
2023-03-02T19:56:08.529Z,29.70
2023-03-02T19:58:36.670Z,29.40
2023-03-02T20:01:05.050Z,29.10
2023-03-02T20:03:33.002Z,30.10
2023-03-02T20:06:01.013Z,33.80
2023-03-02T20:08:29.215Z,32.90
2023-03-02T20:10:57.301Z,30.10
2023-03-02T20:13:27.155Z,25.80
2023-03-02T20:15:55.198Z,31.60
2023-03-02T20:18:25.878Z,29.50
2023-03-02T20:20:53.925Z,30.70
2023-03-02T20:23:28.461Z,28.60
2023-03-02T20:25:56.500Z,27.60
2023-03-02T20:28:28.246Z,29.40
2023-03-02T20:30:58.813Z,28.50
2023-03-02T20:33:33.429Z,31.00
2023-03-02T20:36:03.275Z,29.60
2023-03-02T20:38:44.716Z,29.50
2023-03-02T20:41:13.145Z,30.00
2023-03-02T20:43:41.623Z,30.50
2023-03-02T20:46:11.834Z,32.70
2023-03-02T20:48:39.787Z,28.10
2023-03-02T20:51:07.960Z,27.80
2023-03-02T20:53:36.061Z,31.40
2023-03-02T20:56:04.370Z,35.00
2023-03-02T20:58:32.375Z,33.50
2023-03-02T21:01:01.166Z,32.30
2023-03-02T21:03:29.358Z,33.90
2023-03-02T21:05:57.415Z,32.40
2023-03-02T21:08:26.104Z,31.40
2023-03-02T21:10:54.091Z,30.80
2023-03-02T21:13:22.565Z,33.80
2023-03-02T21:15:51.034Z,37.00
2023-03-02T21:18:19.001Z,35.50
2023-03-02T21:20:47.087Z,32.50
2023-03-02T21:23:15.105Z,29.30
2023-03-02T21:25:44.797Z,28.30
2023-03-02T21:28:12.929Z,29.40
2023-03-02T21:30:41.013Z,31.40
2023-03-02T21:33:08.933Z,34.20
2023-03-02T21:35:37.230Z,34.90
2023-03-02T21:38:05.664Z,36.20
2023-03-02T21:43:59.966Z,34.70
2023-03-02T21:46:27.837Z,34.30
2023-03-02T21:48:55.799Z,36.40
2023-03-02T21:51:23.683Z,36.60
2023-03-02T21:53:53.323Z,37.90
2023-03-02T21:56:23.622Z,35.90
2023-03-02T21:58:54.539Z,32.50
2023-03-02T22:01:23.808Z,31.20
2023-03-02T22:03:51.933Z,32.40
2023-03-02T22:06:25.747Z,33.50
2023-03-02T22:08:54.214Z,27.10
2023-03-02T22:11:25.378Z,31.10
2023-03-02T22:13:56.812Z,26.80
2023-03-02T22:16:33.498Z,28.90
2023-03-02T22:19:01.665Z,35.40
2023-03-02T22:21:39.043Z,29.80
2023-03-02T22:24:09.899Z,27.40
2023-03-02T22:26:43.688Z,26.90
2023-03-02T22:29:16.259Z,26.50
2023-03-02T22:31:49.017Z,27.40
2023-03-02T22:34:23.853Z,27.70
2023-03-02T22:36:51.943Z,28.40
2023-03-02T22:39:32.264Z,24.60
2023-03-02T22:42:29.399Z,28.10
2023-03-02T22:45:13.016Z,29.50
2023-03-02T22:47:42.571Z,31.60
2023-03-02T22:50:21.226Z,35.50
2023-03-02T22:52:49.306Z,43.80
2023-03-02T22:55:37.645Z,43.40
2023-03-02T22:58:42.782Z,39.30
2023-03-02T23:01:21.122Z,39.70
2023-03-02T23:03:57.831Z,36.60
2023-03-02T23:06:28.098Z,31.10
2023-03-02T23:09:01.973Z,31.60
2023-03-02T23:11:36.061Z,29.60
2023-03-02T23:14:41.061Z,31.80
2023-03-02T23:17:15.443Z,25.50
2023-03-02T23:19:43.303Z,25.60
2023-03-02T23:22:11.257Z,24.30
2023-03-02T23:24:38.988Z,25.50
2023-03-02T23:27:06.849Z,29.20
2023-03-02T23:29:35.344Z,34.00
2023-03-02T23:32:03.282Z,35.10
2023-03-02T23:34:31.391Z,32.10
2023-03-02T23:36:59.559Z,25.30
2023-03-02T23:39:27.440Z,24.80
2023-03-02T23:41:55.554Z,26.20
2023-03-02T23:44:23.321Z,28.60
2023-03-02T23:46:52.129Z,28.30
2023-03-02T23:49:20.113Z,26.80
2023-03-02T23:51:48.691Z,26.20
2023-03-02T23:54:16.704Z,26.60
2023-03-02T23:56:44.564Z,29.90
2023-03-02T23:59:12.580Z,25.20
